Terminal Aerodrome Forecast
Issued by NWS

Home | Current Version | Previous Version | Text Only | Print | Product List | Glossary On
Versions: 1 2 3 4 5 6 7 8 9 10 11 12 13 14 15 16
000
FTAK31 PAJN 251100
TAFAKT
TAF
PAKT 251138Z 2512/2612 16007KT P6SM -RA SCT009 BKN020 OVC030
      TEMPO 2512/2516 5SM -RA BR BKN009
     FM251600 15008KT 5SM -RA BR SCT008 OVC015
     FM252100 30006KT P6SM VCSH SCT015 BKN035
     FM260900 VRB04KT P6SM VCSH SCT015 OVC025
      AMD LTD TO CLD VIS AND WIND 2512/2515=

USA.gov is the U.S. government's official web portal to all federal, state and local government web resources and services.